createdAt,value
2023-04-10T00:01:12.802Z,21.48
2023-04-10T00:03:41.182Z,24.23
2023-04-10T00:06:12.560Z,21.67
2023-04-10T00:08:49.809Z,23.23
2023-04-10T00:11:31.464Z,22.30
2023-04-10T00:14:13.066Z,22.88
2023-04-10T00:16:44.594Z,20.90
2023-04-10T00:21:49.737Z,20.63
2023-04-10T00:24:18.799Z,18.17
2023-04-10T00:26:48.986Z,16.98
2023-04-10T00:29:21.531Z,14.70
2023-04-10T00:32:02.339Z,15.32
2023-04-10T00:34:32.022Z,13.73
2023-04-10T00:37:09.543Z,17.48
2023-04-10T00:39:47.008Z,15.73
2023-04-10T00:42:25.617Z,15.18
2023-04-10T00:44:55.904Z,16.10
2023-04-10T00:47:40.567Z,14.75
2023-04-10T00:50:10.002Z,16.35
2023-04-10T00:52:47.965Z,14.80
2023-04-10T00:55:25.518Z,14.75
2023-04-10T00:57:57.063Z,15.88
2023-04-10T01:00:36.102Z,15.52
2023-04-10T01:03:28.220Z,15.13
2023-04-10T01:06:08.875Z,16.75
2023-04-10T01:08:45.402Z,13.83
2023-04-10T01:11:34.091Z,16.65
2023-04-10T01:14:16.012Z,17.10
2023-04-10T01:16:55.224Z,17.10
2023-04-10T01:19:43.215Z,17.02
2023-04-10T01:22:16.376Z,13.90
2023-04-10T01:24:59.355Z,13.13
2023-04-10T01:27:55.712Z,15.70
2023-04-10T01:30:41.427Z,15.55
2023-04-10T01:33:16.462Z,14.70
2023-04-10T01:35:45.725Z,15.85
2023-04-10T01:38:17.641Z,15.38
2023-04-10T01:40:51.781Z,17.00
2023-04-10T01:43:21.614Z,13.45
2023-04-10T01:45:51.731Z,15.48
2023-04-10T01:48:20.619Z,17.25
2023-04-10T01:50:52.496Z,18.67
2023-04-10T01:53:28.145Z,14.38
2023-04-10T01:56:04.751Z,14.32
2023-04-10T01:58:33.884Z,14.32
2023-04-10T02:01:10.247Z,20.90
2023-04-10T02:03:45.723Z,38.65
2023-04-10T02:06:30.648Z,17.88
2023-04-10T02:09:15.246Z,18.85
2023-04-10T02:11:49.432Z,17.60
2023-04-10T02:14:19.254Z,23.58
2023-04-10T02:17:03.156Z,22.65
2023-04-10T02:19:37.439Z,23.65
2023-04-10T02:22:14.614Z,20.35
2023-04-10T02:24:42.823Z,18.52
2023-04-10T02:27:17.915Z,22.70
2023-04-10T02:29:59.189Z,23.30
2023-04-10T02:32:30.910Z,23.35
2023-04-10T02:35:06.308Z,23.30
2023-04-10T02:37:38.597Z,25.55
2023-04-10T02:40:07.228Z,27.20
2023-04-10T02:42:35.325Z,25.17
2023-04-10T02:45:03.665Z,26.73
2023-04-10T02:47:35.847Z,27.40
2023-04-10T02:50:23.310Z,25.60
2023-04-10T02:52:58.154Z,28.88
2023-04-10T02:55:27.096Z,32.10
2023-04-10T02:57:59.149Z,39.65
2023-04-10T03:00:27.644Z,34.38
2023-04-10T03:02:56.001Z,37.63
2023-04-10T03:05:25.043Z,30.83
2023-04-10T03:07:59.468Z,33.28
2023-04-10T03:10:34.924Z,29.60
2023-04-10T03:13:13.822Z,24.80
2023-04-10T03:15:43.930Z,26.27
2023-04-10T03:18:19.990Z,23.02
2023-04-10T03:21:14.101Z,25.15
2023-04-10T03:24:00.714Z,22.15
2023-04-10T03:26:31.863Z,22.27
2023-04-10T03:29:28.963Z,19.45
2023-04-10T03:32:13.530Z,17.52
2023-04-10T03:35:07.284Z,15.15
2023-04-10T03:37:52.323Z,17.30
2023-04-10T03:40:36.002Z,15.80
2023-04-10T03:46:23.932Z,17.85
2023-04-10T03:49:12.563Z,14.85
2023-04-10T03:51:45.953Z,12.80
2023-04-10T03:54:28.263Z,14.43
2023-04-10T03:57:03.572Z,28.20
2023-04-10T03:59:38.570Z,19.08
2023-04-10T04:02:08.441Z,37.13
2023-04-10T04:04:58.635Z,28.08
2023-04-10T04:07:27.812Z,37.22
2023-04-10T04:09:56.659Z,20.08
2023-04-10T04:12:47.718Z,66.05
2023-04-10T04:15:25.385Z,67.57
2023-04-10T04:17:59.883Z,51.70
2023-04-10T04:20:46.421Z,26.13
2023-04-10T04:23:42.386Z,40.65
2023-04-10T04:26:46.873Z,71.30
2023-04-10T04:29:36.495Z,38.05
2023-04-10T04:32:05.372Z,24.17
2023-04-10T04:34:49.706Z,19.48
2023-04-10T04:37:18.730Z,24.05
2023-04-10T04:39:47.715Z,105.05
2023-04-10T04:42:23.853Z,104.47
2023-04-10T04:44:52.194Z,178.63
2023-04-10T04:47:22.368Z,294.25
2023-04-10T04:49:50.676Z,304.00
2023-04-10T04:52:39.097Z,371.15
2023-04-10T04:55:18.594Z,331.35
2023-04-10T04:57:47.644Z,254.85
2023-04-10T05:00:17.806Z,332.58
2023-04-10T05:02:46.006Z,83.47
2023-04-10T05:05:16.100Z,111.70
2023-04-10T05:08:01.245Z,115.32
2023-04-10T05:10:48.037Z,110.70
2023-04-10T05:13:30.310Z,78.13
2023-04-10T05:16:21.449Z,73.45
2023-04-10T05:19:00.098Z,49.22
2023-04-10T05:22:02.261Z,76.05
2023-04-10T05:24:35.450Z,40.35
2023-04-10T05:27:23.695Z,135.50
2023-04-10T05:29:57.990Z,102.30
2023-04-10T05:32:32.293Z,41.80
2023-04-10T05:35:08.719Z,98.38
2023-04-10T05:37:36.650Z,135.70
2023-04-10T05:40:18.172Z,104.95
2023-04-10T05:42:53.565Z,80.30
2023-04-10T05:45:25.806Z,63.35
2023-04-10T05:47:53.849Z,57.22
2023-04-10T05:50:24.988Z,78.97
2023-04-10T05:52:53.241Z,65.35
2023-04-10T05:55:36.657Z,104.40
2023-04-10T05:58:23.930Z,215.98
2023-04-10T06:00:57.667Z,105.47
2023-04-10T06:03:32.212Z,65.78
2023-04-10T06:06:08.648Z,131.32
2023-04-10T06:08:40.790Z,192.57
2023-04-10T06:11:36.928Z,240.70
2023-04-10T06:14:22.133Z,185.23
2023-04-10T06:16:52.374Z,274.80
2023-04-10T06:19:25.507Z,242.32
2023-04-10T06:22:08.835Z,153.18
2023-04-10T06:24:55.647Z,146.50
2023-04-10T06:27:42.284Z,150.95
2023-04-10T06:30:32.099Z,102.07
2023-04-10T06:33:01.289Z,99.85
2023-04-10T06:35:46.521Z,120.55
2023-04-10T06:38:15.513Z,123.70
2023-04-10T06:40:43.687Z,106.47
2023-04-10T06:43:20.067Z,84.25
2023-04-10T06:45:59.326Z,126.28
2023-04-10T06:48:50.016Z,78.03
2023-04-10T06:51:23.656Z,314.95
2023-04-10T06:53:52.968Z,148.30
2023-04-10T06:56:28.931Z,91.53
2023-04-10T06:59:00.191Z,44.15
2023-04-10T07:01:32.573Z,89.50
2023-04-10T07:04:03.703Z,29.63
2023-04-10T07:07:03.086Z,52.42
2023-04-10T07:09:40.777Z,24.23
2023-04-10T07:12:18.973Z,23.05
2023-04-10T07:15:18.939Z,23.88
2023-04-10T07:17:49.781Z,25.98
2023-04-10T07:20:21.965Z,23.40
2023-04-10T07:22:50.109Z,24.15
2023-04-10T07:25:42.102Z,25.90
2023-04-10T07:28:19.348Z,22.13
2023-04-10T07:30:48.551Z,17.88
2023-04-10T07:33:18.269Z,22.48
2023-04-10T07:35:53.531Z,20.17
2023-04-10T07:38:22.413Z,20.65
2023-04-10T07:41:01.918Z,22.40
2023-04-10T07:43:31.865Z,17.88
2023-04-10T07:46:12.666Z,16.20
2023-04-10T07:48:42.999Z,17.85
2023-04-10T07:51:11.443Z,18.48
2023-04-10T07:53:39.702Z,18.48
2023-04-10T07:56:08.133Z,19.88
2023-04-10T07:58:36.422Z,17.23
2023-04-10T08:01:04.593Z,20.65
2023-04-10T08:03:51.409Z,23.50
2023-04-10T08:06:21.841Z,18.77
2023-04-10T08:08:59.211Z,20.35
2023-04-10T08:11:31.605Z,18.58
2023-04-10T08:14:10.177Z,19.17
2023-04-10T08:16:41.562Z,17.95
2023-04-10T08:19:22.007Z,23.30
2023-04-10T08:21:52.147Z,20.40
2023-04-10T08:24:55.406Z,23.15
2023-04-10T08:27:24.732Z,20.90
2023-04-10T08:30:10.281Z,24.38
2023-04-10T08:32:38.208Z,19.77
2023-04-10T08:35:16.744Z,19.67
2023-04-10T08:37:53.613Z,22.20
2023-04-10T08:40:31.356Z,21.00
2023-04-10T08:42:59.376Z,20.88
2023-04-10T08:45:29.239Z,19.90
2023-04-10T08:48:16.343Z,20.27
2023-04-10T08:51:06.088Z,24.17
2023-04-10T08:53:52.127Z,21.92
2023-04-10T08:56:20.332Z,20.70
2023-04-10T08:58:58.522Z,21.15
2023-04-10T09:01:32.281Z,19.63
2023-04-10T09:04:19.409Z,23.48
2023-04-10T09:06:53.940Z,21.70
2023-04-10T09:09:33.632Z,25.35
2023-04-10T09:12:05.658Z,19.92
2023-04-10T09:14:54.711Z,23.98
2023-04-10T09:17:35.239Z,22.50
2023-04-10T09:20:22.929Z,26.90
2023-04-10T09:26:29.188Z,19.70
2023-04-10T09:29:09.496Z,19.48
2023-04-10T09:32:12.889Z,23.75
2023-04-10T09:35:18.166Z,26.92
2023-04-10T09:37:53.250Z,19.83
2023-04-10T09:40:27.380Z,29.67
2023-04-10T09:43:01.881Z,23.58
2023-04-10T09:45:48.638Z,18.05
2023-04-10T09:48:26.374Z,21.20
2023-04-10T09:51:17.064Z,17.38
2023-04-10T09:53:53.577Z,23.10
2023-04-10T09:56:22.999Z,20.02
2023-04-10T09:59:03.588Z,20.92
2023-04-10T10:01:50.814Z,21.83
2023-04-10T10:04:21.050Z,18.70
2023-04-10T10:06:49.420Z,21.20
2023-04-10T10:09:18.781Z,20.30
2023-04-10T10:11:52.178Z,22.60
2023-04-10T10:14:24.399Z,21.75
2023-04-10T10:17:05.556Z,21.60
2023-04-10T10:19:46.667Z,22.98
2023-04-10T10:22:14.848Z,21.60
2023-04-10T10:24:51.169Z,22.55
2023-04-10T10:27:19.564Z,25.77
2023-04-10T10:30:20.709Z,25.70
2023-04-10T10:32:57.905Z,22.55
2023-04-10T10:35:38.677Z,20.70
2023-04-10T10:38:08.117Z,24.38
2023-04-10T10:40:58.754Z,25.40
2023-04-10T10:43:33.679Z,20.98
2023-04-10T10:46:06.812Z,26.88
2023-04-10T10:48:34.935Z,25.25
2023-04-10T10:51:04.877Z,22.85
2023-04-10T10:53:48.242Z,24.48
2023-04-10T10:56:28.612Z,26.58
2023-04-10T10:59:04.565Z,21.90
2023-04-10T11:01:37.781Z,24.92
2023-04-10T11:04:38.621Z,25.42
2023-04-10T11:07:08.429Z,24.20
2023-04-10T11:09:55.872Z,26.88
2023-04-10T11:12:39.678Z,23.63
2023-04-10T11:15:36.795Z,24.35
2023-04-10T11:18:44.481Z,24.52
2023-04-10T11:21:53.854Z,24.15
2023-04-10T11:24:48.525Z,24.65
2023-04-10T11:27:43.735Z,24.52
2023-04-10T11:30:37.810Z,19.52
2023-04-10T11:33:08.117Z,20.13
2023-04-10T11:35:36.359Z,20.63
2023-04-10T11:38:24.781Z,20.67
2023-04-10T11:40:57.715Z,20.23
2023-04-10T11:43:25.904Z,21.70
2023-04-10T11:46:00.670Z,18.63
2023-04-10T11:49:10.599Z,15.13
2023-04-10T11:51:58.018Z,15.68
2023-04-10T11:55:08.609Z,14.02
2023-04-10T11:57:58.638Z,14.15
2023-04-10T12:00:26.458Z,14.70
2023-04-10T12:02:54.811Z,15.27
2023-04-10T12:05:24.340Z,14.93
2023-04-10T12:07:56.189Z,13.05
2023-04-10T12:10:53.398Z,12.90
2023-04-10T12:13:49.379Z,11.77
2023-04-10T12:16:19.670Z,13.27
2023-04-10T12:19:06.485Z,10.95
2023-04-10T12:21:38.913Z,10.27
2023-04-10T12:24:07.240Z,10.38
2023-04-10T12:27:05.457Z,8.45
2023-04-10T12:29:35.512Z,11.65
2023-04-10T12:32:11.023Z,9.68
2023-04-10T12:34:40.430Z,9.77
2023-04-10T12:37:11.156Z,7.47
2023-04-10T12:40:00.730Z,9.65
2023-04-10T12:42:55.911Z,8.30
2023-04-10T12:45:58.063Z,9.48
2023-04-10T12:48:25.887Z,9.32
2023-04-10T12:50:56.058Z,8.98
2023-04-10T12:53:58.578Z,8.40
2023-04-10T12:56:26.438Z,8.85
2023-04-10T12:58:59.343Z,12.88
2023-04-10T13:01:49.202Z,11.25
2023-04-10T13:04:18.348Z,11.60
2023-04-10T13:06:48.748Z,12.80
2023-04-10T13:09:25.829Z,13.90
2023-04-10T13:12:19.834Z,10.77
2023-04-10T13:14:58.172Z,12.02
2023-04-10T13:17:37.317Z,18.63
2023-04-10T13:20:08.836Z,13.10
2023-04-10T13:22:43.035Z,11.57
2023-04-10T13:25:30.369Z,13.35
2023-04-10T13:28:03.062Z,11.68
2023-04-10T13:30:47.655Z,10.15
2023-04-10T13:33:17.768Z,10.02
2023-04-10T13:35:52.164Z,9.07
2023-04-10T13:38:39.853Z,9.45
2023-04-10T13:41:15.969Z,10.73
2023-04-10T13:43:44.291Z,13.45
2023-04-10T13:46:40.983Z,8.50
2023-04-10T13:49:10.009Z,10.88
2023-04-10T13:52:06.946Z,8.18
2023-04-10T13:54:35.651Z,10.55
2023-04-10T13:57:05.582Z,7.63
2023-04-10T13:59:53.598Z,8.40
2023-04-10T14:02:21.511Z,9.90
2023-04-10T14:05:02.926Z,7.80
2023-04-10T14:10:12.965Z,8.38
2023-04-10T14:12:44.136Z,11.02
2023-04-10T14:15:13.281Z,6.63
2023-04-10T14:18:03.638Z,8.73
2023-04-10T14:20:43.713Z,8.80
2023-04-10T14:23:19.497Z,15.70
2023-04-10T14:25:48.614Z,15.98
2023-04-10T14:28:19.990Z,8.93
2023-04-10T14:30:47.971Z,11.43
2023-04-10T14:33:20.825Z,9.38
2023-04-10T14:35:53.884Z,8.73
2023-04-10T14:38:31.165Z,9.25
2023-04-10T14:41:02.198Z,12.65
2023-04-10T14:43:57.100Z,13.73
2023-04-10T14:46:26.947Z,22.95
2023-04-10T14:49:03.634Z,28.75
2023-04-10T14:51:51.349Z,16.00
2023-04-10T14:54:34.502Z,15.07
2023-04-10T14:57:21.955Z,11.25
2023-04-10T15:00:07.283Z,13.60
2023-04-10T15:02:35.430Z,12.60
2023-04-10T15:05:03.743Z,22.85
2023-04-10T15:07:33.913Z,60.75
2023-04-10T15:10:03.341Z,14.40
2023-04-10T15:12:31.653Z,13.82
2023-04-10T15:15:00.216Z,8.48
2023-04-10T15:17:31.472Z,8.82
2023-04-10T15:22:31.972Z,10.57
2023-04-10T15:25:01.171Z,8.65
2023-04-10T15:27:30.517Z,6.65
2023-04-10T15:30:00.574Z,7.30
2023-04-10T15:32:41.115Z,7.63
2023-04-10T15:35:09.480Z,6.70
2023-04-10T15:37:45.729Z,6.65
2023-04-10T15:40:18.044Z,7.55
2023-04-10T15:42:55.408Z,7.05
2023-04-10T15:45:30.667Z,6.90
2023-04-10T15:48:05.773Z,7.47
2023-04-10T15:50:36.472Z,6.55
2023-04-10T15:53:34.383Z,8.65
2023-04-10T15:56:31.496Z,7.82
2023-04-10T15:59:02.949Z,7.32
2023-04-10T16:01:32.655Z,7.05
2023-04-10T16:04:17.792Z,7.03
2023-04-10T16:06:47.106Z,7.38
2023-04-10T16:09:31.903Z,7.40
2023-04-10T16:12:03.727Z,7.50
2023-04-10T16:14:33.558Z,7.18
2023-04-10T16:17:02.656Z,8.10
2023-04-10T16:19:43.772Z,7.53
2023-04-10T16:22:20.098Z,7.03
2023-04-10T16:25:23.198Z,6.68
2023-04-10T16:27:52.301Z,8.95
2023-04-10T16:30:20.480Z,6.80
2023-04-10T16:33:11.843Z,7.32
2023-04-10T16:35:59.214Z,7.93
2023-04-10T16:38:27.546Z,7.15
2023-04-10T16:40:55.499Z,8.18
2023-04-10T16:44:02.458Z,7.78
2023-04-10T16:46:36.614Z,7.82
2023-04-10T16:49:24.314Z,8.48
2023-04-10T16:51:53.585Z,8.38
2023-04-10T16:54:21.749Z,9.57
2023-04-10T16:56:49.836Z,9.13
2023-04-10T16:59:32.560Z,9.70
2023-04-10T17:02:27.655Z,8.45
2023-04-10T17:05:01.267Z,8.15
2023-04-10T17:07:52.235Z,8.25
2023-04-10T17:10:42.226Z,10.63
2023-04-10T17:13:11.349Z,10.00
2023-04-10T17:15:51.722Z,18.42
2023-04-10T17:18:21.522Z,11.90
2023-04-10T17:21:22.861Z,10.30
2023-04-10T17:23:58.290Z,6.90
2023-04-10T17:26:35.412Z,13.10
2023-04-10T17:29:10.466Z,10.18
2023-04-10T17:31:39.770Z,11.13
2023-04-10T17:34:11.041Z,10.43
2023-04-10T17:36:41.120Z,8.18
2023-04-10T17:39:11.231Z,10.65
2023-04-10T17:41:46.225Z,13.90
2023-04-10T17:44:27.641Z,15.60
2023-04-10T17:46:58.731Z,9.88
2023-04-10T17:49:26.901Z,10.57
2023-04-10T17:52:37.885Z,11.23
2023-04-10T17:55:07.264Z,9.87
2023-04-10T17:58:09.480Z,8.75
2023-04-10T18:00:37.910Z,10.77
2023-04-10T18:03:05.884Z,10.35
2023-04-10T18:05:38.056Z,10.20
2023-04-10T18:11:25.378Z,8.82
2023-04-10T18:14:04.618Z,8.57
2023-04-10T18:16:32.768Z,8.85
2023-04-10T18:19:07.564Z,9.90
2023-04-10T18:21:38.495Z,9.77
2023-04-10T18:24:30.465Z,9.93
2023-04-10T18:27:00.505Z,9.02
2023-04-10T18:29:29.185Z,8.60
2023-04-10T18:32:00.270Z,10.45
2023-04-10T18:34:53.010Z,8.85
2023-04-10T18:37:21.149Z,11.07
2023-04-10T18:40:09.753Z,7.88
2023-04-10T18:42:51.184Z,9.90
2023-04-10T18:45:19.717Z,12.27
2023-04-10T18:48:04.443Z,10.40
2023-04-10T18:50:41.942Z,13.63
2023-04-10T18:53:27.133Z,8.65
2023-04-10T18:55:58.192Z,10.25
2023-04-10T19:01:41.175Z,9.20
2023-04-10T19:07:16.968Z,11.90
2023-04-10T19:09:48.010Z,9.45
2023-04-10T19:12:18.484Z,8.63
2023-04-10T19:14:52.668Z,10.48
2023-04-10T19:17:26.197Z,10.65
2023-04-10T19:19:58.485Z,9.27
2023-04-10T19:22:43.155Z,9.57
2023-04-10T19:25:12.345Z,9.43
2023-04-10T19:27:54.529Z,12.00
2023-04-10T19:30:24.693Z,9.25
2023-04-10T19:33:12.224Z,10.40
2023-04-10T19:35:52.768Z,9.70
2023-04-10T19:38:25.848Z,9.05
2023-04-10T19:41:04.009Z,8.52
2023-04-10T19:43:59.663Z,9.27
2023-04-10T19:46:32.878Z,8.40
2023-04-10T19:49:25.822Z,9.75
2023-04-10T19:55:07.603Z,20.92
2023-04-10T19:57:49.069Z,14.48
2023-04-10T20:00:19.704Z,19.45
2023-04-10T20:02:48.862Z,53.30
2023-04-10T20:05:19.607Z,25.75
2023-04-10T20:07:59.495Z,25.93
2023-04-10T20:10:31.630Z,27.90
2023-04-10T20:13:18.084Z,19.50
2023-04-10T20:16:04.551Z,18.65
2023-04-10T20:18:35.912Z,17.95
2023-04-10T20:21:06.690Z,17.70
2023-04-10T20:23:40.980Z,18.35
2023-04-10T20:26:10.130Z,16.77
2023-04-10T20:28:39.644Z,17.00
2023-04-10T20:31:09.477Z,18.05
2023-04-10T20:33:38.053Z,22.05
2023-04-10T20:36:44.145Z,17.60
2023-04-10T20:39:42.710Z,16.55
2023-04-10T20:42:10.643Z,17.27
2023-04-10T20:44:46.814Z,16.20
2023-04-10T20:47:28.280Z,17.50
2023-04-10T20:50:21.671Z,16.15
2023-04-10T20:52:50.866Z,15.55
2023-04-10T20:55:25.040Z,17.02
2023-04-10T20:57:53.276Z,15.43
2023-04-10T21:00:21.234Z,14.20
2023-04-10T21:03:01.140Z,16.23
2023-04-10T21:05:43.068Z,16.08
2023-04-10T21:08:12.004Z,15.10
2023-04-10T21:10:52.892Z,15.00
2023-04-10T21:13:37.067Z,12.15
2023-04-10T21:19:24.741Z,16.10
2023-04-10T21:21:55.827Z,15.10
2023-04-10T21:24:35.231Z,12.38
2023-04-10T21:30:23.414Z,13.57
2023-04-10T21:32:51.561Z,14.15
2023-04-10T21:35:46.791Z,17.23
2023-04-10T21:38:15.767Z,13.25
2023-04-10T21:40:43.777Z,15.45
2023-04-10T21:43:18.117Z,16.00
2023-04-10T21:46:02.694Z,13.88
2023-04-10T21:48:32.985Z,16.77
2023-04-10T21:51:01.179Z,15.98
2023-04-10T21:53:38.297Z,15.95
2023-04-10T21:56:07.723Z,14.98
2023-04-10T21:58:39.507Z,14.10
2023-04-10T22:01:15.919Z,13.90
2023-04-10T22:03:43.920Z,15.40
2023-04-10T22:06:12.196Z,15.23
2023-04-10T22:08:48.564Z,13.40
2023-04-10T22:11:22.322Z,15.43
2023-04-10T22:14:15.786Z,14.90
2023-04-10T22:17:16.205Z,12.45
2023-04-10T22:20:02.460Z,15.18
2023-04-10T22:22:33.735Z,10.90
2023-04-10T22:25:07.766Z,12.10
2023-04-10T22:27:37.834Z,11.82
2023-04-10T22:30:06.065Z,10.80
2023-04-10T22:32:34.260Z,10.30
2023-04-10T22:35:29.038Z,10.77
2023-04-10T22:38:25.125Z,11.30
2023-04-10T22:41:16.272Z,10.25
2023-04-10T22:43:52.550Z,10.73
2023-04-10T22:46:21.848Z,11.23
2023-04-10T22:48:59.385Z,9.90
2023-04-10T22:51:34.439Z,11.60
2023-04-10T22:54:19.819Z,10.35
2023-04-10T22:56:54.130Z,13.50
2023-04-10T22:59:30.274Z,13.38
2023-04-10T23:02:05.390Z,13.95
2023-04-10T23:04:33.463Z,14.45
2023-04-10T23:07:02.501Z,12.20
2023-04-10T23:09:48.661Z,11.70
2023-04-10T23:12:33.943Z,11.82
2023-04-10T23:15:07.802Z,12.52
2023-04-10T23:17:37.866Z,13.45
2023-04-10T23:20:06.237Z,15.50
2023-04-10T23:22:34.193Z,12.68
2023-04-10T23:25:03.515Z,12.98
2023-04-10T23:27:44.292Z,12.45
2023-04-10T23:30:20.599Z,11.15
2023-04-10T23:32:59.625Z,11.95
2023-04-10T23:35:28.303Z,11.30
2023-04-10T23:37:56.474Z,12.75
2023-04-10T23:40:44.900Z,9.68
2023-04-10T23:43:12.818Z,13.02
2023-04-10T23:45:57.173Z,10.43
2023-04-10T23:48:28.444Z,12.45
2023-04-10T23:51:17.504Z,9.70
2023-04-10T23:54:04.041Z,10.15
2023-04-10T23:56:34.333Z,10.60
2023-04-10T23:59:02.655Z,12.38
